Time;durP1;ratioP1;P1;durP2;ratioP2;P2;SDS_P1;SDS_P2;PMS_P1;PMS_P2;Temp;Humidity;BMP_temperature;BMP_pressure;BME280_temperature;BME280_humidity;BME280_pressure;Samples;Min_cycle;Max_cycle;Signal;HPM_P1;HPM_P2
2019/04/25 00:02:24;;;;;;;6.7;0.9;;;;;;;12.72;55.5752;932.6404;;;;
2019/04/25 00:04:24;;;;;;;9;1.1;;;;;;;12.55;56.82617;932.6303;;;;
2019/04/25 00:06:53;;;;;;;5.9;1;;;;;;;12.19;58.7959;932.6313;;;;
2019/04/25 00:09:19;;;;;;;4.8;1;;;;;;;12.31;56.95605;932.682;;;;
2019/04/25 00:11:47;;;;;;;8.1;1;;;;;;;12.42;56.87793;932.6066;;;;
2019/04/25 00:14:13;;;;;;;6.7;0.8;;;;;;;12.32;57.20801;932.5917;;;;
2019/04/25 00:16:44;;;;;;;7.3;1;;;;;;;12.55;56.25195;932.5792;;;;
2019/04/25 00:19:08;;;;;;;9.5;1;;;;;;;12.4;56.46289;932.6207;;;;
2019/04/25 00:21:40;;;;;;;5.7;0.9;;;;;;;12.33;56.94629;932.582;;;;
2019/04/25 00:24:02;;;;;;;6.9;1;;;;;;;12.39;56.71387;932.5369;;;;
2019/04/25 00:26:36;;;;;;;5.5;1;;;;;;;12.36;56.65234;932.6258;;;;
2019/04/25 00:28:52;;;;;;;4.8;0.9;;;;;;;12.3;57.15918;932.5598;;;;
2019/04/25 00:31:18;;;;;;;8.9;1.1;;;;;;;12.49;56.77246;932.5556;;;;
2019/04/25 00:33:46;;;;;;;10.2;0.9;;;;;;;12.48;56.64551;932.5438;;;;
2019/04/25 00:36:16;;;;;;;7.1;1;;;;;;;12.59;56.28125;932.6379;;;;
2019/04/25 00:38:41;;;;;;;7.3;1;;;;;;;12.34;56.98242;932.6362;;;;
2019/04/25 00:41:07;;;;;;;7.7;0.8;;;;;;;12.36;57.13379;932.6425;;;;
2019/04/25 00:43:34;;;;;;;6.1;1.1;;;;;;;12.16;58.37988;932.685;;;;
2019/04/25 00:45:59;;;;;;;5.3;1;;;;;;;12.11;58.00684;932.6741;;;;
2019/04/25 00:48:42;;;;;;;8.7;1.4;;;;;;;12.01;58.44043;932.7781;;;;
2019/04/25 00:51:18;;;;;;;8.7;1.4;;;;;;;12.28;57.9707;932.7109;;;;
2019/04/25 00:53:48;;;;;;;5.9;1.1;;;;;;;11.93;59.18555;932.7147;;;;
2019/04/25 00:56:13;;;;;;;9.5;1.1;;;;;;;11.74;58.78027;932.7053;;;;
2019/04/25 01:04:54;;;;;;;9.1;1;;;;;;;11.7;59.33789;932.8666;;;;
2019/04/25 01:07:20;;;;;;;6.8;1.2;;;;;;;11.54;60.31152;932.9219;;;;
2019/04/25 01:09:49;;;;;;;8.2;1.2;;;;;;;11.53;60.27539;932.8972;;;;
2019/04/25 01:12:14;;;;;;;3.9;1;;;;;;;11.73;59.82227;932.7787;;;;
2019/04/25 01:15:02;;;;;;;5.7;1.1;;;;;;;11.7;59.54395;932.7773;;;;
2019/04/25 01:17:27;;;;;;;6.2;1.2;;;;;;;11.57;60.03027;932.7567;;;;
2019/04/25 01:19:55;;;;;;;8.5;1.1;;;;;;;11.66;59.90234;932.7224;;;;
2019/04/25 01:22:18;;;;;;;9.1;1.6;;;;;;;11.45;62.87207;932.7285;;;;
2019/04/25 01:24:47;;;;;;;7.5;1.4;;;;;;;11.14;62.81738;932.7556;;;;
2019/04/25 01:27:12;;;;;;;7.6;1.3;;;;;;;11.16;62.3623;932.7238;;;;
2019/04/25 01:29:44;;;;;;;8.3;1.3;;;;;;;11.02;62.43262;932.7009;;;;
2019/04/25 01:32:15;;;;;;;8.4;1.6;;;;;;;11.32;61.03418;932.7078;;;;
2019/04/25 01:34:53;;;;;;;4.6;1;;;;;;;11.37;60.5957;932.7275;;;;
2019/04/25 01:37:13;;;;;;;5.3;0.9;;;;;;;10.91;61.86914;932.6522;;;;
2019/04/25 01:39:36;;;;;;;11.2;1;;;;;;;10.89;61.8418;932.6761;;;;
2019/04/25 01:42:36;;;;;;;5.1;1.2;;;;;;;10.99;61.60645;932.644;;;;
2019/04/25 01:44:23;;;;;;;5.9;1.1;;;;;;;10.94;61.75879;932.6282;;;;
2019/04/25 01:46:45;;;;;;;7.5;1;;;;;;;10.71;62.57031;932.7333;;;;
2019/04/25 01:49:16;;;;;;;11.5;1.4;;;;;;;10.55;62.9707;932.6175;;;;
2019/04/25 01:51:43;;;;;;;12.2;1.1;;;;;;;10.69;62.47656;932.6505;;;;
2019/04/25 01:54:09;;;;;;;8.5;1.1;;;;;;;10.32;63.60938;932.7006;;;;
2019/04/25 01:56:36;;;;;;;5.2;1.1;;;;;;;10.04;64.53906;932.7664;;;;
2019/04/25 01:59:04;;;;;;;9.2;1.1;;;;;;;10.15;64.29102;932.7347;;;;
2019/04/25 02:01:31;;;;;;;9.3;1;;;;;;;9.76;66.00195;932.6672;;;;
2019/04/25 02:03:56;;;;;;;5.8;1;;;;;;;9.58;66.9082;932.6042;;;;
2019/04/25 02:06:21;;;;;;;4.8;1.3;;;;;;;9.42;67.70313;932.5909;;;;
2019/04/25 02:08:50;;;;;;;8.9;1.2;;;;;;;9.33;68.20117;932.5997;;;;
2019/04/25 02:11:22;;;;;;;4;1.1;;;;;;;9.72;67.04297;932.582;;;;
2019/04/25 02:13:49;;;;;;;7;1.2;;;;;;;10.02;66.07422;932.5571;;;;
2019/04/25 02:16:14;;;;;;;5.6;1.2;;;;;;;9.84;66.75488;932.651;;;;
2019/04/25 02:18:45;;;;;;;4.4;1.2;;;;;;;9.89;67.90234;932.5692;;;;
2019/04/25 02:21:10;;;;;;;10.1;1.2;;;;;;;10.05;66.06836;932.5914;;;;
2019/04/25 02:23:35;;;;;;;10.3;1.2;;;;;;;10.01;65.68652;932.7059;;;;
2019/04/25 02:26:00;;;;;;;6.5;0.9;;;;;;;9.93;66.16309;932.6926;;;;
2019/04/25 02:28:26;;;;;;;8.7;1.2;;;;;;;10.01;66.31445;932.6804;;;;
2019/04/25 02:30:51;;;;;;;28.1;3.9;;;;;;;9.95;65.69824;932.5806;;;;
2019/04/25 02:33:16;;;;;;;5.9;0.9;;;;;;;9.7;66.71973;932.6018;;;;
2019/04/25 02:35:43;;;;;;;5;1.2;;;;;;;9.45;67.91211;932.448;;;;
2019/04/25 02:38:08;;;;;;;6.1;1.2;;;;;;;9.86;66.2666;932.4841;;;;
2019/04/25 02:40:33;;;;;;;7.9;1.4;;;;;;;10.12;65.45117;932.5342;;;;
2019/04/25 02:42:58;;;;;;;10.6;3.9;;;;;;;10.22;65.85352;932.4864;;;;
2019/04/25 02:45:55;;;;;;;6.8;1.9;;;;;;;10.22;65.03223;932.5159;;;;
2019/04/25 02:50:27;;;;;;;6.6;1;;;;;;;9.94;65.62891;932.5352;;;;
2019/04/25 02:52:55;;;;;;;8.9;1.2;;;;;;;9.52;67.34277;932.4666;;;;
2019/04/25 02:55:07;;;;;;;5.3;1;;;;;;;9.18;68.90527;932.5422;;;;
2019/04/25 02:57:32;;;;;;;7.3;1.1;;;;;;;9.02;69.92773;932.5494;;;;
2019/04/25 02:59:58;;;;;;;5.1;1.3;;;;;;;9.05;69.86328;932.517;;;;
2019/04/25 03:02:23;;;;;;;6.6;1.1;;;;;;;9.43;68.41016;932.5901;;;;
2019/04/25 03:04:49;;;;;;;5;1.2;;;;;;;9.64;67.65723;932.5309;;;;
2019/04/25 03:07:14;;;;;;;8.4;1.3;;;;;;;9.59;69.1543;932.4548;;;;
2019/04/25 03:09:43;;;;;;;10;1.2;;;;;;;9.76;67.73438;932.4891;;;;
2019/04/25 03:12:08;;;;;;;9;1.3;;;;;;;9.63;67.39355;932.4895;;;;
2019/04/25 03:14:33;;;;;;;9.8;1.4;;;;;;;9.82;66.61426;932.5349;;;;
2019/04/25 03:17:00;;;;;;;9.1;1.3;;;;;;;10.05;65.53125;932.5158;;;;
2019/04/25 03:19:51;;;;;;;10.6;1.5;;;;;;;9.89;65.88379;932.3872;;;;
2019/04/25 03:21:56;;;;;;;9.2;1.4;;;;;;;9.46;67.44629;932.3964;;;;
2019/04/25 03:24:32;;;;;;;20.1;3;;;;;;;9.36;68.08008;932.4108;;;;
2019/04/25 03:26:57;;;;;;;6.4;1.4;;;;;;;9.15;68.86719;932.5159;;;;
2019/04/25 03:29:23;;;;;;;7.9;1.1;;;;;;;9.48;67.72266;932.3948;;;;
2019/04/25 03:31:49;;;;;;;7.6;1.4;;;;;;;9.49;67.51953;932.4481;;;;
2019/04/25 03:34:14;;;;;;;9.1;1.4;;;;;;;8.85;70.20703;932.3797;;;;
2019/04/25 03:36:39;;;;;;;5.4;1.2;;;;;;;8.85;70.32031;932.4138;;;;
2019/04/25 03:39:05;;;;;;;8.8;1.5;;;;;;;9.13;69.28516;932.3014;;;;
2019/04/25 03:41:30;;;;;;;5.6;1.3;;;;;;;9.38;69.15332;932.3195;;;;
2019/04/25 03:43:55;;;;;;;7.7;1.4;;;;;;;9.79;67.30371;932.4232;;;;
2019/04/25 03:46:20;;;;;;;4.2;1.1;;;;;;;10.04;65.95313;932.3973;;;;
2019/04/25 03:48:45;;;;;;;9.1;1.6;;;;;;;9.85;66.34473;932.3195;;;;
2019/04/25 03:51:10;;;;;;;14.4;2.1;;;;;;;9.83;66.9248;932.4483;;;;
2019/04/25 03:53:35;;;;;;;9.1;2;;;;;;;9.91;66.69629;932.3602;;;;
2019/04/25 03:56:00;;;;;;;21.8;3;;;;;;;10.02;66.24707;932.476;;;;
2019/04/25 03:58:31;;;;;;;13.5;1.7;;;;;;;9.84;66.46875;932.4308;;;;
2019/04/25 04:02:29;;;;;;;12.5;1.8;;;;;;;9.53;67.43555;932.3895;;;;
2019/04/25 04:04:55;;;;;;;6.9;1.5;;;;;;;9.41;67.73535;932.4308;;;;
2019/04/25 04:07:20;;;;;;;5.6;1.4;;;;;;;9.24;68.31055;932.3546;;;;
2019/04/25 04:09:51;;;;;;;6.4;1.3;;;;;;;9.22;68.75195;932.4459;;;;
2019/04/25 04:12:17;;;;;;;9.2;1.8;;;;;;;9.26;69.1123;932.3817;;;;
2019/04/25 04:14:42;;;;;;;17.8;2.7;;;;;;;9.12;69.43164;932.4419;;;;
2019/04/25 04:17:17;;;;;;;7.8;1.4;;;;;;;9.2;68.55566;932.5701;;;;
2019/04/25 04:19:36;;;;;;;8.3;1.6;;;;;;;9.45;67.96875;932.5751;;;;
2019/04/25 04:22:04;;;;;;;5.8;1.5;;;;;;;9.37;67.55762;932.5832;;;;
2019/04/25 04:24:35;;;;;;;4.8;1.4;;;;;;;9.31;67.76563;932.6227;;;;
2019/04/25 04:27:07;;;;;;;7.7;1.9;;;;;;;9.28;68.30664;932.7195;;;;
2019/04/25 04:29:13;;;;;;;4.8;1.3;;;;;;;9.28;67.53223;932.7195;;;;
2019/04/25 04:31:38;;;;;;;7.3;1.5;;;;;;;8.94;69.08203;932.7098;;;;
2019/04/25 04:34:03;;;;;;;5.1;1.6;;;;;;;9.1;68.75684;932.7531;;;;
2019/04/25 04:36:28;;;;;;;6.7;1.6;;;;;;;8.84;69.76172;932.7528;;;;
2019/04/25 04:38:54;;;;;;;7.7;2.1;;;;;;;8.57;70.83203;932.7828;;;;
2019/04/25 04:41:19;;;;;;;9.2;2;;;;;;;8.36;71.85449;932.7561;;;;
2019/04/25 04:43:44;;;;;;;11;2.1;;;;;;;8.21;72.45313;932.7703;;;;
2019/04/25 04:46:09;;;;;;;10;1.8;;;;;;;8.07;72.96191;932.6775;;;;
2019/04/25 04:48:34;;;;;;;5.6;1.4;;;;;;;8.03;73.16016;932.6685;;;;
2019/04/25 04:51:00;;;;;;;6.8;1.7;;;;;;;8.08;73.09961;932.6769;;;;
2019/04/25 04:53:26;;;;;;;12.3;1.6;;;;;;;8.24;72.54883;932.5517;;;;
2019/04/25 04:55:51;;;;;;;6.3;1.3;;;;;;;8.26;72.25586;932.4361;;;;
2019/04/25 04:58:16;;;;;;;5.4;1.4;;;;;;;8.3;71.91211;932.4952;;;;
2019/04/25 05:00:41;;;;;;;13;1.9;;;;;;;8.43;71.39844;932.5341;;;;
2019/04/25 05:03:16;;;;;;;17.6;2.3;;;;;;;8.62;70.10059;932.4573;;;;
2019/04/25 05:06:39;;;;;;;11.4;2;;;;;;;8.91;68.9873;932.4459;;;;
2019/04/25 05:08:02;;;;;;;8.9;1.5;;;;;;;9.42;66.80176;932.4344;;;;
2019/04/25 05:10:22;;;;;;;4.2;1.3;;;;;;;9.39;67.62891;932.5349;;;;
2019/04/25 05:12:50;;;;;;;29.4;23.6;;;;;;;9.85;65.47852;932.5446;;;;
2019/04/25 05:15:29;;;;;;;11;6.9;;;;;;;10.06;64.71191;932.5103;;;;
2019/04/25 05:17:54;;;;;;;15.3;9.5;;;;;;;10.1;65.03711;932.5064;;;;
2019/04/25 05:20:19;;;;;;;12.1;2.4;;;;;;;9.92;65.1582;932.3928;;;;
2019/04/25 05:22:44;;;;;;;10.6;2.4;;;;;;;9.76;65.45313;932.4556;;;;
2019/04/25 05:25:10;;;;;;;14.2;3.2;;;;;;;9.92;65.05566;932.435;;;;
2019/04/25 05:27:35;;;;;;;10.4;2.3;;;;;;;10.35;63.45508;932.4133;;;;
2019/04/25 05:30:02;;;;;;;9;1.7;;;;;;;10.99;61.59473;932.3293;;;;
2019/04/25 05:32:30;;;;;;;8.8;1.6;;;;;;;12.86;55.24902;932.3184;;;;
2019/04/25 05:34:56;;;;;;;15.5;1.6;;;;;;;14.29;50.22559;932.3071;;;;
2019/04/25 05:37:21;;;;;;;5.4;1.2;;;;;;;15.37;46.83887;932.1613;;;;
2019/04/25 05:39:46;;;;;;;8.4;1.6;;;;;;;15.66;46.22266;932.1646;;;;
2019/04/25 05:42:25;;;;;;;5.4;1.2;;;;;;;16.02;45.15137;932.205;;;;
2019/04/25 05:44:41;;;;;;;8.4;1.4;;;;;;;15.7;45.52344;932.1973;;;;
2019/04/25 05:47:07;;;;;;;11.2;1.5;;;;;;;16.32;43.57324;932.1249;;;;
2019/04/25 05:49:31;;;;;;;6.2;0.9;;;;;;;16.4;43.06152;932.1092;;;;
2019/04/25 05:52:01;;;;;;;7.8;1.4;;;;;;;16.72;42.26953;932.1292;;;;
2019/04/25 05:54:27;;;;;;;6.7;1.2;;;;;;;17.34;42.35352;932.1088;;;;
2019/04/25 05:56:52;;;;;;;8.8;1.2;;;;;;;17.97;40.69531;932.1594;;;;
2019/04/25 05:59:23;;;;;;;3.2;1;;;;;;;18.88;40.15137;932.1794;;;;
2019/04/25 06:01:54;;;;;;;6.4;1.5;;;;;;;19.48;41.10254;932.1869;;;;
2019/04/25 06:04:34;;;;;;;3.6;1.3;;;;;;;19.09;42.34766;932.2714;;;;
2019/04/25 06:07:00;;;;;;;8.9;1.4;;;;;;;19.52;41.0957;932.3276;;;;
2019/04/25 06:12:48;;;;;;;13.7;2;;;;;;;19.43;40.62012;932.2938;;;;
2019/04/25 06:14:32;;;;;;;13.2;2.3;;;;;;;20.7;37.53516;932.2955;;;;
2019/04/25 06:17:02;;;;;;;18.1;2.5;;;;;;;20.2;39.53516;932.2634;;;;
2019/04/25 06:19:43;;;;;;;13.9;2.2;;;;;;;21.91;34.81348;932.2103;;;;
2019/04/25 06:21:48;;;;;;;17.4;2.5;;;;;;;21.47;35.18848;932.2877;;;;
2019/04/25 06:24:46;;;;;;;14.2;2.2;;;;;;;20.98;36.16699;932.2856;;;;
2019/04/25 06:27:22;;;;;;;11.1;1.9;;;;;;;21.7;34.72754;932.1969;;;;
2019/04/25 06:29:29;;;;;;;12;2;;;;;;;22.39;32.5752;932.2243;;;;
2019/04/25 06:32:06;;;;;;;20;2.4;;;;;;;24.03;30.10547;932.2416;;;;
2019/04/25 06:34:33;;;;;;;10.8;1.8;;;;;;;23.06;32.61328;932.3046;;;;
2019/04/25 06:37:03;;;;;;;12;1.9;;;;;;;22.7;32.8457;932.2681;;;;
2019/04/25 06:39:27;;;;;;;9.3;1.8;;;;;;;23.54;31.34277;932.3825;;;;
2019/04/25 06:41:51;;;;;;;6.8;1.5;;;;;;;23.68;31.89355;932.3525;;;;
2019/04/25 06:44:34;;;;;;;9.5;1.5;;;;;;;24.86;29.10059;932.313;;;;
2019/04/25 06:46:55;;;;;;;5.4;1.5;;;;;;;24.86;29.52441;932.3011;;;;
2019/04/25 06:49:17;;;;;;;6.6;1.3;;;;;;;25.95;27.57422;932.1969;;;;
2019/04/25 06:53:57;;;;;;;12.6;1.6;;;;;;;24.39;28.43359;932.2631;;;;
2019/04/25 06:56:22;;;;;;;13.6;1.7;;;;;;;25.5;28.44531;932.1754;;;;
2019/04/25 06:58:47;;;;;;;14.9;1.8;;;;;;;26.35;27.25586;932.2189;;;;
2019/04/25 07:01:15;;;;;;;9.3;1.6;;;;;;;24.79;28.25781;932.1556;;;;
2019/04/25 07:03:40;;;;;;;9.4;1.3;;;;;;;25.11;29.06934;932.1905;;;;
2019/04/25 07:06:13;;;;;;;8.5;2.4;;;;;;;25.98;24.06445;932.1487;;;;
2019/04/25 07:08:35;;;;;;;7.6;1.3;;;;;;;26.77;27.18652;932.2086;;;;
2019/04/25 07:11:00;;;;;;;6.5;1.2;;;;;;;26.33;26.69824;932.2001;;;;
2019/04/25 07:13:29;;;;;;;10.6;1.8;;;;;;;27.61;25.71777;932.1103;;;;
2019/04/25 07:15:58;;;;;;;6.1;1.5;;;;;;;25.54;22.0918;932.19;;;;
2019/04/25 07:18:23;;;;;;;4.3;1;;;;;;;24.88;21.69336;932.2141;;;;
2019/04/25 07:20:48;;;;;;;2.4;0.7;;;;;;;26.28;19.77246;932.204;;;;
2019/04/25 07:23:13;;;;;;;3.7;0.8;;;;;;;26.14;18.79688;932.1404;;;;
2019/04/25 07:25:42;;;;;;;2.1;0.8;;;;;;;25.37;20.32324;932.0712;;;;
2019/04/25 07:28:31;;;;;;;6.2;1;;;;;;;25.54;20.59082;931.9956;;;;
2019/04/25 07:37:22;;;;;;;3.4;0.9;;;;;;;24.88;21.32715;932.128;;;;
2019/04/25 07:39:47;;;;;;;2;0.7;;;;;;;24.57;20.60547;932.0986;;;;
2019/04/25 07:42:17;;;;;;;3.4;0.8;;;;;;;24.58;21.72559;932.1404;;;;
2019/04/25 07:44:50;;;;;;;2.7;0.8;;;;;;;25.06;20.36816;932.0297;;;;
2019/04/25 07:47:17;;;;;;;10.7;1.1;;;;;;;25.27;19.69336;932.1124;;;;
2019/04/25 07:49:42;;;;;;;11.6;1;;;;;;;25.84;20.87695;932.0542;;;;
2019/04/25 07:52:08;;;;;;;10;1.2;;;;;;;24.68;21.57715;932.0334;;;;
2019/04/25 07:54:33;;;;;;;5.8;1.1;;;;;;;25.39;20.44238;931.997;;;;
2019/04/25 07:57:05;;;;;;;3.7;0.7;;;;;;;24.59;21.06641;932.074;;;;
2019/04/25 07:59:33;;;;;;;4;0.9;;;;;;;24.67;21.1875;932.0008;;;;
2019/04/25 08:01:58;;;;;;;7;1.1;;;;;;;24.95;20.46973;932.1337;;;;
2019/04/25 08:04:28;;;;;;;7.2;0.9;;;;;;;24.03;20.99219;932.1024;;;;
2019/04/25 08:06:53;;;;;;;1.9;0.8;;;;;;;23.94;23.13086;932.1036;;;;
2019/04/25 08:09:18;;;;;;;23.8;1.5;;;;;;;22.52;23.71484;932.1699;;;;
2019/04/25 08:11:44;;;;;;;8.3;1.3;;;;;;;22.24;25.49414;932.1086;;;;
2019/04/25 08:14:23;;;;;;;7.9;1;;;;;;;22.56;24.23242;932.142;;;;
2019/04/25 08:16:34;;;;;;;5.8;1.2;;;;;;;22.68;22.93652;932.0988;;;;
2019/04/25 08:19:01;;;;;;;3.9;1;;;;;;;23.27;24.4707;932.139;;;;
2019/04/25 08:21:32;;;;;;;2.6;0.9;;;;;;;22.55;22.76563;932.1133;;;;
2019/04/25 08:23:59;;;;;;;3.8;1;;;;;;;22.22;23.47559;932.1976;;;;
2019/04/25 08:26:24;;;;;;;5.1;0.9;;;;;;;21.72;25.83789;932.1777;;;;
2019/04/25 08:28:51;;;;;;;9;1.3;;;;;;;22.11;23.69238;932.1111;;;;
2019/04/25 08:31:17;;;;;;;4.6;1;;;;;;;22.22;23.74512;932.1587;;;;
2019/04/25 08:33:46;;;;;;;7.8;1;;;;;;;22.26;23.95801;932.2051;;;;
2019/04/25 08:36:11;;;;;;;14.5;1.3;;;;;;;22.61;23.37793;932.2479;;;;
2019/04/25 08:38:40;;;;;;;14.2;1.2;;;;;;;22.74;23.26855;932.1622;;;;
2019/04/25 08:41:17;;;;;;;8.5;1.2;;;;;;;22.81;23.58887;932.1906;;;;
2019/04/25 08:43:42;;;;;;;3.8;1;;;;;;;22.84;23.83691;932.1047;;;;
2019/04/25 08:46:19;;;;;;;5;1;;;;;;;23.79;22.75879;932.2303;;;;
2019/04/25 08:49:09;;;;;;;6.1;1;;;;;;;24.2;22.87305;932.1928;;;;
2019/04/25 08:51:13;;;;;;;6.8;1.1;;;;;;;23.49;22.79004;932.1867;;;;
2019/04/25 08:53:40;;;;;;;6.1;1;;;;;;;22.85;24.38965;932.2374;;;;
2019/04/25 08:56:20;;;;;;;10.8;1.3;;;;;;;22.83;23.81348;932.1058;;;;
2019/04/25 08:58:42;;;;;;;6.4;1;;;;;;;23.14;23.6416;932.1019;;;;
2019/04/25 09:04:30;;;;;;;5.9;1.1;;;;;;;22.41;24.30664;932.0831;;;;
2019/04/25 09:06:48;;;;;;;11.5;1.1;;;;;;;22.05;24.46289;932.1113;;;;
2019/04/25 09:09:14;;;;;;;23.5;1.8;;;;;;;21.78;24.9873;932.1984;;;;
2019/04/25 09:11:39;;;;;;;35.8;2;;;;;;;21.35;25.06836;932.1369;;;;
2019/04/25 09:14:04;;;;;;;9.6;1.2;;;;;;;21.29;26.65527;932.0333;;;;
2019/04/25 09:16:29;;;;;;;13.9;1.5;;;;;;;21.61;24.71973;932.0209;;;;
2019/04/25 09:18:54;;;;;;;21.7;1.8;;;;;;;21.21;24.91992;932.0698;;;;
2019/04/25 09:21:21;;;;;;;10.1;1.1;;;;;;;21.11;25.03125;932.2399;;;;
2019/04/25 09:23:44;;;;;;;9;1;;;;;;;21.49;25.08691;932.2285;;;;
2019/04/25 09:26:11;;;;;;;5.7;1;;;;;;;21.29;24.54883;932.0513;;;;
2019/04/25 09:28:36;;;;;;;6.6;0.9;;;;;;;21.3;24.48047;932.1267;;;;
2019/04/25 09:31:05;;;;;;;5.4;0.9;;;;;;;21.25;25.69434;932.1646;;;;
2019/04/25 09:33:30;;;;;;;3.6;1;;;;;;;21.39;24.08691;932.1702;;;;
2019/04/25 09:36:00;;;;;;;2.6;0.8;;;;;;;21.56;25.0332;932.296;;;;
2019/04/25 09:38:26;;;;;;;5.6;1.1;;;;;;;21.65;23.59668;932.2878;;;;
2019/04/25 09:40:51;;;;;;;4.5;1.1;;;;;;;21.72;23.75391;932.2375;;;;
2019/04/25 09:43:17;;;;;;;3.6;1.4;;;;;;;21.83;24.32129;932.1828;;;;
2019/04/25 09:48:27;;;;;;;4.6;1.3;;;;;;;22.01;23.55762;932.1774;;;;
2019/04/25 09:50:38;;;;;;;8.7;3.9;;;;;;;22.25;25.17773;932.1854;;;;
2019/04/25 09:53:02;;;;;;;4.7;1.3;;;;;;;22.26;25.33008;932.266;;;;
2019/04/25 09:55:35;;;;;;;4.7;1.1;;;;;;;22.35;23.0957;932.295;;;;
2019/04/25 09:57:56;;;;;;;3.5;0.9;;;;;;;21.79;23.69824;932.1934;;;;
2019/04/25 10:00:25;;;;;;;4.7;1;;;;;;;22.02;25.07031;932.2489;;;;
2019/04/25 10:02:44;;;;;;;4.1;1;;;;;;;22.39;24.07129;932.2153;;;;
2019/04/25 10:05:09;;;;;;;6.3;1.2;;;;;;;22.08;23.57324;932.0977;;;;
2019/04/25 10:07:34;;;;;;;9.9;1.1;;;;;;;22.06;24.21777;932.0751;;;;
2019/04/25 10:09:59;;;;;;;4;1;;;;;;;21.68;23.92773;931.9968;;;;
2019/04/25 10:12:24;;;;;;;10.5;1.1;;;;;;;22.05;24.70898;932.1852;;;;
2019/04/25 10:14:49;;;;;;;6;1;;;;;;;22.33;24.71289;932.0818;;;;
2019/04/25 10:17:14;;;;;;;8.9;1.2;;;;;;;21.67;23.31738;932.1547;;;;
2019/04/25 10:19:40;;;;;;;7.3;1.1;;;;;;;21.9;23.33008;932.0508;;;;
2019/04/25 10:22:08;;;;;;;4.1;1;;;;;;;22.22;23.4873;932.1119;;;;
2019/04/25 10:24:34;;;;;;;10.1;1.2;;;;;;;22.94;23.18457;932.0153;;;;
2019/04/25 10:27:01;;;;;;;8.4;1.1;;;;;;;22.81;22.70801;932.0698;;;;
2019/04/25 10:29:26;;;;;;;9.7;1;;;;;;;23.61;23.125;932.186;;;;
2019/04/25 10:31:51;;;;;;;34.2;2;;;;;;;23.39;22.24414;932.159;;;;
2019/04/25 10:34:16;;;;;;;5.8;1;;;;;;;23.6;22.86621;932.074;;;;
2019/04/25 10:36:41;;;;;;;5.5;0.9;;;;;;;24.38;22.56445;932.1172;;;;
2019/04/25 10:39:06;;;;;;;5.7;1.1;;;;;;;24.37;21.51465;932.0364;;;;
2019/04/25 10:41:53;;;;;;;7.5;1.3;;;;;;;24.08;21.60742;932.06;;;;
2019/04/25 10:44:18;;;;;;;9.1;1.1;;;;;;;24.13;22.26953;932.0176;;;;
2019/04/25 10:46:46;;;;;;;11.5;1.2;;;;;;;24.54;21.12305;932.0385;;;;
2019/04/25 10:49:12;;;;;;;2.9;0.9;;;;;;;24.34;21.3252;932.2014;;;;
2019/04/25 10:51:37;;;;;;;3.3;0.9;;;;;;;24.62;20.34863;932.0483;;;;
2019/04/25 10:54:06;;;;;;;12;1.2;;;;;;;24.76;20.85059;932.1514;;;;
2019/04/25 10:56:50;;;;;;;43.6;2.1;;;;;;;23.52;21.87402;932.0467;;;;
2019/04/25 10:59:15;;;;;;;11.4;1.2;;;;;;;23.52;22.18066;932.0948;;;;
2019/04/25 11:01:41;;;;;;;3;0.8;;;;;;;24.04;20.56836;932.0882;;;;
2019/04/25 11:04:22;;;;;;;10.8;1.2;;;;;;;24.49;21.34375;932.1655;;;;
2019/04/25 11:06:36;;;;;;;6.8;1;;;;;;;24.18;20.8584;932.009;;;;
2019/04/25 11:09:01;;;;;;;6.8;0.9;;;;;;;23.4;22.72559;931.9927;;;;
2019/04/25 11:11:28;;;;;;;4.6;1;;;;;;;23.62;22.84375;932.0587;;;;
2019/04/25 11:13:54;;;;;;;13.6;2.3;;;;;;;23.46;24.49316;931.9055;;;;
2019/04/25 11:16:19;;;;;;;8.8;1.3;;;;;;;22.97;22.72754;931.9066;;;;
2019/04/25 11:18:44;;;;;;;4.6;0.9;;;;;;;22.5;22.9502;931.9578;;;;
2019/04/25 11:21:12;;;;;;;6.3;1.1;;;;;;;23.05;23.02539;932.0471;;;;
2019/04/25 11:23:38;;;;;;;6.3;0.9;;;;;;;22.91;22.11426;931.9122;;;;
2019/04/25 11:26:07;;;;;;;3.9;0.9;;;;;;;23.44;23.56348;931.9429;;;;
2019/04/25 11:28:34;;;;;;;5.1;1;;;;;;;22.99;22.70508;931.9213;;;;
2019/04/25 11:30:59;;;;;;;10.6;1.1;;;;;;;22.74;22.55176;931.7218;;;;
2019/04/25 11:33:25;;;;;;;6.7;1.1;;;;;;;23.4;23.27832;931.7717;;;;
2019/04/25 11:36:13;;;;;;;5.5;1;;;;;;;23.32;23.31055;931.8798;;;;
2019/04/25 11:39:22;;;;;;;5.7;1;;;;;;;22.9;22.6543;931.8354;;;;
2019/04/25 11:41:18;;;;;;;7.3;1.2;;;;;;;22.33;23.42188;931.7924;;;;
2019/04/25 11:43:48;;;;;;;5.6;1.3;;;;;;;22.76;23.12793;931.7961;;;;
2019/04/25 11:46:13;;;;;;;4.1;0.9;;;;;;;23.04;22.52051;931.7104;;;;
2019/04/25 11:48:38;;;;;;;2.5;1;;;;;;;22.2;25.15137;931.8547;;;;
2019/04/25 11:51:09;;;;;;;10.2;1.8;;;;;;;22.75;23.43262;931.7935;;;;
2019/04/25 11:53:34;;;;;;;9.1;1.1;;;;;;;22.91;23.66504;931.7732;;;;
2019/04/25 11:56:00;;;;;;;10;1.3;;;;;;;22.33;24.03223;931.7065;;;;
2019/04/25 11:58:25;;;;;;;2.8;0.9;;;;;;;22.18;23.82422;931.7374;;;;
2019/04/25 12:00:50;;;;;;;2;0.9;;;;;;;22.35;23.68164;931.733;;;;
2019/04/25 12:03:32;;;;;;;6.9;1.3;;;;;;;22.39;23.74219;931.6622;;;;
2019/04/25 12:06:10;;;;;;;6.6;1;;;;;;;22.38;22.75684;931.7374;;;;
2019/04/25 12:08:43;;;;;;;5.3;0.9;;;;;;;22.25;22.90234;931.6612;;;;
2019/04/25 12:11:06;;;;;;;6.3;1.1;;;;;;;21.86;24.08887;931.5078;;;;
2019/04/25 12:13:31;;;;;;;6.4;1.2;;;;;;;21.65;25.2373;931.4659;;;;
2019/04/25 12:15:57;;;;;;;4.2;1.2;;;;;;;21.7;23.96289;931.5019;;;;
2019/04/25 12:18:24;;;;;;;4;1;;;;;;;22.32;22.90625;931.6169;;;;
2019/04/25 12:20:49;;;;;;;7.8;1.4;;;;;;;22.66;23.81543;931.6738;;;;
2019/04/25 12:23:14;;;;;;;6.1;1.1;;;;;;;22.43;22.71191;931.4749;;;;
2019/04/25 12:25:41;;;;;;;6.3;1.4;;;;;;;22.35;24.09277;931.3864;;;;
2019/04/25 12:28:06;;;;;;;6.7;1.6;;;;;;;22.05;24.9082;931.4536;;;;
2019/04/25 12:30:32;;;;;;;3.8;1.6;;;;;;;21.99;24.63574;931.3895;;;;
2019/04/25 12:33:00;;;;;;;8.1;1.1;;;;;;;21.65;24.86133;931.3672;;;;
2019/04/25 12:35:32;;;;;;;3.5;1;;;;;;;21.84;24.7793;931.4464;;;;
2019/04/25 12:37:58;;;;;;;6.4;1;;;;;;;22.34;22.21484;931.4537;;;;
2019/04/25 12:40:23;;;;;;;6.2;1.1;;;;;;;22.59;23.22461;931.4412;;;;
2019/04/25 12:42:48;;;;;;;3.6;1;;;;;;;22.4;23.70801;931.3236;;;;
2019/04/25 12:45:29;;;;;;;12.2;2.5;;;;;;;22.3;24.88672;931.2999;;;;
2019/04/25 12:47:48;;;;;;;6;0.9;;;;;;;22.55;22.95313;931.2303;;;;
2019/04/25 12:50:13;;;;;;;7.9;1.2;;;;;;;22.65;22.47656;931.2594;;;;
2019/04/25 12:52:54;;;;;;;6.8;1.2;;;;;;;22.53;24.8418;931.2598;;;;
2019/04/25 12:55:19;;;;;;;4.6;1.1;;;;;;;22.08;26.31641;931.3113;;;;
2019/04/25 12:57:47;;;;;;;3.8;1;;;;;;;22.32;25.06348;931.3443;;;;
2019/04/25 13:00:23;;;;;;;6.3;1.4;;;;;;;22.73;24.16016;931.3113;;;;
2019/04/25 13:02:44;;;;;;;4.2;1.1;;;;;;;22.28;23.25586;931.2932;;;;
2019/04/25 13:05:09;;;;;;;5.7;1.6;;;;;;;21.93;25.18164;931.3728;;;;
2019/04/25 13:07:37;;;;;;;6;1.4;;;;;;;21.76;24.99707;931.2424;;;;
2019/04/25 13:10:02;;;;;;;7.2;1.3;;;;;;;21.58;24.90527;931.166;;;;
2019/04/25 13:12:28;;;;;;;3.2;1;;;;;;;21.39;27.41113;931.1451;;;;
2019/04/25 13:14:53;;;;;;;3.6;1.1;;;;;;;21.42;25.9502;931.1237;;;;
2019/04/25 13:17:19;;;;;;;5.7;1.1;;;;;;;21.95;25.53516;931.2357;;;;
2019/04/25 13:19:44;;;;;;;5.6;1.1;;;;;;;21.72;26.08398;931.2182;;;;
2019/04/25 13:22:09;;;;;;;7.1;2.3;;;;;;;21.68;27.14844;930.9945;;;;
2019/04/25 13:24:34;;;;;;;6.2;1.2;;;;;;;21.22;25.85547;931.119;;;;
2019/04/25 13:27:06;;;;;;;5.2;1;;;;;;;21.21;25.64453;931.0644;;;;
2019/04/25 13:30:24;;;;;;;5.7;1.5;;;;;;;21.43;27.17969;931.2006;;;;
2019/04/25 13:34:29;;;;;;;4.7;1.1;;;;;;;21.91;26.36523;931.2195;;;;
2019/04/25 13:36:51;;;;;;;5.3;1.2;;;;;;;21.67;26.26855;930.9489;;;;
2019/04/25 13:39:17;;;;;;;5.8;1.1;;;;;;;21.41;26.70996;931.0042;;;;
2019/04/25 13:41:41;;;;;;;5.1;1.2;;;;;;;21.2;27.22363;930.9749;;;;
2019/04/25 13:44:11;;;;;;;5.8;1.3;;;;;;;21.34;27.04492;931.0366;;;;
2019/04/25 13:46:36;;;;;;;5;1.5;;;;;;;21.42;27.54102;931.064;;;;
2019/04/25 13:49:02;;;;;;;3.9;1.3;;;;;;;21.45;26.73535;931.0208;;;;
2019/04/25 13:51:35;;;;;;;6.6;1.2;;;;;;;21.66;25.62402;930.998;;;;
2019/04/25 13:54:00;;;;;;;7.7;1.6;;;;;;;21.93;25.90918;930.9526;;;;
2019/04/25 13:56:25;;;;;;;4;1.2;;;;;;;22.38;23.94141;930.9196;;;;
2019/04/25 13:58:53;;;;;;;4.4;1.4;;;;;;;22.38;24.55176;930.8845;;;;
2019/04/25 14:01:16;;;;;;;6.2;1.4;;;;;;;22.51;24.61719;930.8739;;;;
2019/04/25 14:03:42;;;;;;;6.9;1.5;;;;;;;22.49;25.48438;930.8204;;;;
2019/04/25 14:06:06;;;;;;;5.4;1.5;;;;;;;22.48;25.60059;930.7358;;;;
2019/04/25 14:08:32;;;;;;;4.2;1.5;;;;;;;22.72;26.16602;930.6813;;;;
2019/04/25 14:10:57;;;;;;;8.5;1.6;;;;;;;22.55;24.85449;930.7161;;;;
2019/04/25 14:13:22;;;;;;;7.1;1.1;;;;;;;22.43;24.44824;930.7;;;;
2019/04/25 14:16:08;;;;;;;5.2;1.3;;;;;;;22.91;25.8252;930.5481;;;;
2019/04/25 14:18:32;;;;;;;5.6;1.3;;;;;;;23.21;25.7959;930.7484;;;;
2019/04/25 14:20:56;;;;;;;5.5;1.3;;;;;;;22.78;26.53418;930.7587;;;;
2019/04/25 14:23:21;;;;;;;2.8;1.1;;;;;;;22.73;24.93457;930.7061;;;;
2019/04/25 14:25:46;;;;;;;5.3;1.5;;;;;;;22.61;26.07813;930.6897;;;;
2019/04/25 14:28:14;;;;;;;7.7;1.6;;;;;;;22.77;25.47656;930.704;;;;
2019/04/25 14:30:38;;;;;;;10.8;1.5;;;;;;;22.82;25.66797;930.6739;;;;
2019/04/25 14:33:06;;;;;;;9;1.4;;;;;;;22.56;27.55273;930.6539;;;;
2019/04/25 14:35:31;;;;;;;4.3;1.2;;;;;;;22.53;27.92676;930.5639;;;;
2019/04/25 14:37:59;;;;;;;4.5;1.2;;;;;;;22.46;27.58203;930.6044;;;;
2019/04/25 14:40:21;;;;;;;3.8;1.2;;;;;;;22.58;27.71875;930.6024;;;;
2019/04/25 14:42:47;;;;;;;3.5;1.1;;;;;;;22.51;26.45898;930.6492;;;;
2019/04/25 14:45:13;;;;;;;8;1.3;;;;;;;22.55;28.13965;930.6252;;;;
2019/04/25 14:47:38;;;;;;;5.7;1.2;;;;;;;22.66;26.69141;930.5947;;;;
2019/04/25 14:50:04;;;;;;;5.8;1.3;;;;;;;22.33;26.97656;930.5553;;;;
2019/04/25 14:52:32;;;;;;;3.6;1.4;;;;;;;22.6;28.24902;930.6339;;;;
2019/04/25 14:55:28;;;;;;;5.4;1.3;;;;;;;22.48;28.26465;930.6229;;;;
2019/04/25 14:57:35;;;;;;;6.9;1.2;;;;;;;22.7;27.52734;930.7147;;;;